sensor_id;sensor_type;location;lat;lon;timestamp;P1;durP1;ratioP1;P2;durP2;ratioP2
16654;SDS011;8441;51.344;7.022;2022-09-12T00:00:12;0.10;;;0.10;;
16654;SDS011;8441;51.344;7.022;2022-09-12T00:02:41;0.20;;;0.20;;
16654;SDS011;8441;51.344;7.022;2022-09-12T00:05:08;0.15;;;0.15;;
16654;SDS011;8441;51.344;7.022;2022-09-12T00:07:35;0.10;;;0.10;;
16654;SDS011;8441;51.344;7.022;2022-09-12T00:10:02;0.10;;;0.10;;
16654;SDS011;8441;51.344;7.022;2022-09-12T00:12:30;0.13;;;0.13;;
16654;SDS011;8441;51.344;7.022;2022-09-12T00:14:57;0.20;;;0.20;;
16654;SDS011;8441;51.344;7.022;2022-09-12T00:17:24;0.10;;;0.10;;
16654;SDS011;8441;51.344;7.022;2022-09-12T00:19:52;0.13;;;0.13;;
16654;SDS011;8441;51.344;7.022;2022-09-12T00:22:20;0.10;;;0.10;;
16654;SDS011;8441;51.344;7.022;2022-09-12T00:24:47;0.20;;;0.20;;
16654;SDS011;8441;51.344;7.022;2022-09-12T00:27:14;0.20;;;0.20;;
16654;SDS011;8441;51.344;7.022;2022-09-12T00:29:41;0.10;;;0.10;;
16654;SDS011;8441;51.344;7.022;2022-09-12T00:32:08;0.20;;;0.20;;
16654;SDS011;8441;51.344;7.022;2022-09-12T00:34:35;0.17;;;0.17;;
16654;SDS011;8441;51.344;7.022;2022-09-12T00:37:03;0.20;;;0.20;;
16654;SDS011;8441;51.344;7.022;2022-09-12T00:39:30;0.10;;;0.10;;
16654;SDS011;8441;51.344;7.022;2022-09-12T00:41:58;0.10;;;0.10;;
16654;SDS011;8441;51.344;7.022;2022-09-12T00:44:44;0.20;;;0.20;;
16654;SDS011;8441;51.344;7.022;2022-09-12T00:47:18;0.20;;;0.20;;
16654;SDS011;8441;51.344;7.022;2022-09-12T00:49:49;0.10;;;0.10;;
16654;SDS011;8441;51.344;7.022;2022-09-12T00:52:23;0.10;;;0.10;;
16654;SDS011;8441;51.344;7.022;2022-09-12T00:54:54;0.10;;;0.10;;
16654;SDS011;8441;51.344;7.022;2022-09-12T00:57:25;0.20;;;0.20;;
16654;SDS011;8441;51.344;7.022;2022-09-12T00:59:56;0.20;;;0.20;;
16654;SDS011;8441;51.344;7.022;2022-09-12T01:02:29;0.10;;;0.10;;
16654;SDS011;8441;51.344;7.022;2022-09-12T01:04:56;0.20;;;0.20;;
16654;SDS011;8441;51.344;7.022;2022-09-12T01:07:24;0.10;;;0.10;;
16654;SDS011;8441;51.344;7.022;2022-09-12T01:09:51;0.10;;;0.10;;
16654;SDS011;8441;51.344;7.022;2022-09-12T01:12:19;0.20;;;0.20;;
16654;SDS011;8441;51.344;7.022;2022-09-12T01:14:46;0.10;;;0.10;;
16654;SDS011;8441;51.344;7.022;2022-09-12T01:17:13;0.20;;;0.20;;
16654;SDS011;8441;51.344;7.022;2022-09-12T01:20:04;0.15;;;0.15;;
16654;SDS011;8441;51.344;7.022;2022-09-12T01:23:10;0.10;;;0.10;;
16654;SDS011;8441;51.344;7.022;2022-09-12T01:25:59;0.20;;;0.20;;
16654;SDS011;8441;51.344;7.022;2022-09-12T01:28:43;0.20;;;0.20;;
16654;SDS011;8441;51.344;7.022;2022-09-12T01:31:28;0.10;;;0.10;;
16654;SDS011;8441;51.344;7.022;2022-09-12T01:34:09;0.20;;;0.20;;
16654;SDS011;8441;51.344;7.022;2022-09-12T01:36:46;0.20;;;0.20;;
16654;SDS011;8441;51.344;7.022;2022-09-12T01:39:24;0.20;;;0.20;;
16654;SDS011;8441;51.344;7.022;2022-09-12T01:42:00;0.10;;;0.10;;
16654;SDS011;8441;51.344;7.022;2022-09-12T01:44:35;0.08;;;0.08;;
16654;SDS011;8441;51.344;7.022;2022-09-12T01:47:11;0.20;;;0.20;;
16654;SDS011;8441;51.344;7.022;2022-09-12T01:49:44;0.15;;;0.15;;
16654;SDS011;8441;51.344;7.022;2022-09-12T01:52:18;0.10;;;0.10;;
16654;SDS011;8441;51.344;7.022;2022-09-12T01:54:50;0.10;;;0.10;;
16654;SDS011;8441;51.344;7.022;2022-09-12T01:57:21;0.10;;;0.10;;
16654;SDS011;8441;51.344;7.022;2022-09-12T01:59:53;0.20;;;0.20;;
16654;SDS011;8441;51.344;7.022;2022-09-12T02:02:27;0.20;;;0.20;;
16654;SDS011;8441;51.344;7.022;2022-09-12T02:04:58;0.20;;;0.20;;
16654;SDS011;8441;51.344;7.022;2022-09-12T02:07:30;0.20;;;0.20;;
16654;SDS011;8441;51.344;7.022;2022-09-12T02:10:03;0.10;;;0.10;;
16654;SDS011;8441;51.344;7.022;2022-09-12T02:12:36;0.20;;;0.20;;
16654;SDS011;8441;51.344;7.022;2022-09-12T02:15:06;0.20;;;0.20;;
16654;SDS011;8441;51.344;7.022;2022-09-12T02:17:36;0.20;;;0.20;;
16654;SDS011;8441;51.344;7.022;2022-09-12T02:20:07;0.10;;;0.10;;
16654;SDS011;8441;51.344;7.022;2022-09-12T02:22:38;0.20;;;0.20;;
16654;SDS011;8441;51.344;7.022;2022-09-12T02:25:08;0.20;;;0.20;;
16654;SDS011;8441;51.344;7.022;2022-09-12T02:27:39;0.15;;;0.15;;
16654;SDS011;8441;51.344;7.022;2022-09-12T02:30:09;0.10;;;0.10;;
16654;SDS011;8441;51.344;7.022;2022-09-12T02:32:42;0.20;;;0.20;;
16654;SDS011;8441;51.344;7.022;2022-09-12T02:35:21;0.20;;;0.20;;
16654;SDS011;8441;51.344;7.022;2022-09-12T02:37:56;0.10;;;0.10;;
16654;SDS011;8441;51.344;7.022;2022-09-12T02:40:27;0.20;;;0.20;;
16654;SDS011;8441;51.344;7.022;2022-09-12T02:42:55;0.20;;;0.20;;
16654;SDS011;8441;51.344;7.022;2022-09-12T02:45:22;0.10;;;0.10;;
16654;SDS011;8441;51.344;7.022;2022-09-12T02:47:52;0.20;;;0.20;;
16654;SDS011;8441;51.344;7.022;2022-09-12T02:50:23;0.20;;;0.20;;
16654;SDS011;8441;51.344;7.022;2022-09-12T02:52:51;0.20;;;0.20;;
16654;SDS011;8441;51.344;7.022;2022-09-12T02:55:23;0.20;;;0.20;;
16654;SDS011;8441;51.344;7.022;2022-09-12T02:57:51;0.10;;;0.10;;
16654;SDS011;8441;51.344;7.022;2022-09-12T03:00:18;0.13;;;0.13;;
16654;SDS011;8441;51.344;7.022;2022-09-12T03:02:56;0.20;;;0.20;;
16654;SDS011;8441;51.344;7.022;2022-09-12T03:05:39;0.13;;;0.13;;
16654;SDS011;8441;51.344;7.022;2022-09-12T03:08:23;0.10;;;0.10;;
16654;SDS011;8441;51.344;7.022;2022-09-12T03:11:23;0.20;;;0.20;;
16654;SDS011;8441;51.344;7.022;2022-09-12T03:14:08;0.20;;;0.20;;
16654;SDS011;8441;51.344;7.022;2022-09-12T03:16:45;0.20;;;0.20;;
16654;SDS011;8441;51.344;7.022;2022-09-12T03:19:23;0.20;;;0.20;;
16654;SDS011;8441;51.344;7.022;2022-09-12T03:22:02;0.20;;;0.20;;
16654;SDS011;8441;51.344;7.022;2022-09-12T03:24:40;0.10;;;0.10;;
16654;SDS011;8441;51.344;7.022;2022-09-12T03:27:14;0.20;;;0.20;;
16654;SDS011;8441;51.344;7.022;2022-09-12T03:29:44;0.20;;;0.20;;
16654;SDS011;8441;51.344;7.022;2022-09-12T03:32:13;0.20;;;0.20;;
16654;SDS011;8441;51.344;7.022;2022-09-12T03:34:42;0.20;;;0.20;;
16654;SDS011;8441;51.344;7.022;2022-09-12T03:37:09;0.20;;;0.20;;
16654;SDS011;8441;51.344;7.022;2022-09-12T03:39:36;0.20;;;0.20;;
16654;SDS011;8441;51.344;7.022;2022-09-12T03:42:03;0.20;;;0.20;;
16654;SDS011;8441;51.344;7.022;2022-09-12T03:44:30;0.10;;;0.10;;
16654;SDS011;8441;51.344;7.022;2022-09-12T03:46:57;0.20;;;0.20;;
16654;SDS011;8441;51.344;7.022;2022-09-12T03:49:24;0.20;;;0.20;;
16654;SDS011;8441;51.344;7.022;2022-09-12T03:51:53;0.20;;;0.20;;
16654;SDS011;8441;51.344;7.022;2022-09-12T03:54:20;0.10;;;0.10;;
16654;SDS011;8441;51.344;7.022;2022-09-12T03:56:47;0.20;;;0.20;;
16654;SDS011;8441;51.344;7.022;2022-09-12T03:59:14;0.17;;;0.17;;
16654;SDS011;8441;51.344;7.022;2022-09-12T04:01:40;0.20;;;0.20;;
16654;SDS011;8441;51.344;7.022;2022-09-12T04:04:08;0.10;;;0.10;;
16654;SDS011;8441;51.344;7.022;2022-09-12T04:06:35;0.20;;;0.20;;
16654;SDS011;8441;51.344;7.022;2022-09-12T04:09:03;0.10;;;0.10;;
16654;SDS011;8441;51.344;7.022;2022-09-12T04:11:30;0.20;;;0.20;;
16654;SDS011;8441;51.344;7.022;2022-09-12T04:13:57;0.20;;;0.20;;
16654;SDS011;8441;51.344;7.022;2022-09-12T04:16:24;0.10;;;0.10;;
16654;SDS011;8441;51.344;7.022;2022-09-12T04:18:51;0.10;;;0.10;;
16654;SDS011;8441;51.344;7.022;2022-09-12T04:21:20;0.20;;;0.20;;
16654;SDS011;8441;51.344;7.022;2022-09-12T04:23:47;0.20;;;0.20;;
16654;SDS011;8441;51.344;7.022;2022-09-12T04:26:16;0.13;;;0.13;;
16654;SDS011;8441;51.344;7.022;2022-09-12T04:28:44;0.20;;;0.20;;
16654;SDS011;8441;51.344;7.022;2022-09-12T04:31:13;0.20;;;0.20;;
16654;SDS011;8441;51.344;7.022;2022-09-12T04:33:42;0.20;;;0.20;;
16654;SDS011;8441;51.344;7.022;2022-09-12T04:36:10;0.20;;;0.20;;
16654;SDS011;8441;51.344;7.022;2022-09-12T04:38:40;0.10;;;0.10;;
16654;SDS011;8441;51.344;7.022;2022-09-12T04:41:09;0.20;;;0.20;;
16654;SDS011;8441;51.344;7.022;2022-09-12T04:43:38;0.20;;;0.20;;
16654;SDS011;8441;51.344;7.022;2022-09-12T04:46:07;0.20;;;0.20;;
16654;SDS011;8441;51.344;7.022;2022-09-12T04:48:35;0.10;;;0.10;;
16654;SDS011;8441;51.344;7.022;2022-09-12T04:51:05;0.20;;;0.20;;
16654;SDS011;8441;51.344;7.022;2022-09-12T04:53:34;0.10;;;0.10;;
16654;SDS011;8441;51.344;7.022;2022-09-12T04:56:02;0.15;;;0.15;;
16654;SDS011;8441;51.344;7.022;2022-09-12T04:58:31;0.20;;;0.20;;
16654;SDS011;8441;51.344;7.022;2022-09-12T05:01:03;0.20;;;0.20;;
16654;SDS011;8441;51.344;7.022;2022-09-12T05:03:31;0.20;;;0.20;;
16654;SDS011;8441;51.344;7.022;2022-09-12T05:06:00;0.20;;;0.20;;
16654;SDS011;8441;51.344;7.022;2022-09-12T05:08:28;0.20;;;0.20;;
16654;SDS011;8441;51.344;7.022;2022-09-12T05:10:55;0.17;;;0.17;;
16654;SDS011;8441;51.344;7.022;2022-09-12T05:13:23;0.10;;;0.10;;
16654;SDS011;8441;51.344;7.022;2022-09-12T05:15:54;0.10;;;0.10;;
16654;SDS011;8441;51.344;7.022;2022-09-12T05:18:22;0.20;;;0.20;;
16654;SDS011;8441;51.344;7.022;2022-09-12T05:20:50;0.10;;;0.10;;
16654;SDS011;8441;51.344;7.022;2022-09-12T05:23:17;0.10;;;0.10;;
16654;SDS011;8441;51.344;7.022;2022-09-12T05:25:48;0.10;;;0.10;;
16654;SDS011;8441;51.344;7.022;2022-09-12T05:28:15;0.20;;;0.20;;
16654;SDS011;8441;51.344;7.022;2022-09-12T05:30:42;0.10;;;0.10;;
16654;SDS011;8441;51.344;7.022;2022-09-12T05:33:09;0.20;;;0.20;;
16654;SDS011;8441;51.344;7.022;2022-09-12T05:35:38;0.20;;;0.20;;
16654;SDS011;8441;51.344;7.022;2022-09-12T05:38:05;0.10;;;0.10;;
16654;SDS011;8441;51.344;7.022;2022-09-12T05:40:32;0.10;;;0.10;;
16654;SDS011;8441;51.344;7.022;2022-09-12T05:43:00;0.10;;;0.10;;
16654;SDS011;8441;51.344;7.022;2022-09-12T05:45:27;0.20;;;0.20;;
16654;SDS011;8441;51.344;7.022;2022-09-12T05:47:55;0.10;;;0.10;;
16654;SDS011;8441;51.344;7.022;2022-09-12T05:50:22;0.20;;;0.20;;
16654;SDS011;8441;51.344;7.022;2022-09-12T05:52:51;0.10;;;0.10;;
16654;SDS011;8441;51.344;7.022;2022-09-12T05:55:19;0.20;;;0.20;;
16654;SDS011;8441;51.344;7.022;2022-09-12T05:57:47;0.10;;;0.10;;
16654;SDS011;8441;51.344;7.022;2022-09-12T06:00:14;0.10;;;0.10;;
16654;SDS011;8441;51.344;7.022;2022-09-12T06:02:43;0.20;;;0.20;;
16654;SDS011;8441;51.344;7.022;2022-09-12T06:05:10;0.10;;;0.10;;
16654;SDS011;8441;51.344;7.022;2022-09-12T06:07:37;0.17;;;0.17;;
16654;SDS011;8441;51.344;7.022;2022-09-12T06:10:06;0.10;;;0.10;;
16654;SDS011;8441;51.344;7.022;2022-09-12T06:12:34;0.10;;;0.10;;
16654;SDS011;8441;51.344;7.022;2022-09-12T06:15:01;0.10;;;0.10;;
16654;SDS011;8441;51.344;7.022;2022-09-12T06:17:28;0.10;;;0.10;;
16654;SDS011;8441;51.344;7.022;2022-09-12T06:19:55;0.10;;;0.10;;
16654;SDS011;8441;51.344;7.022;2022-09-12T06:22:22;0.10;;;0.10;;
16654;SDS011;8441;51.344;7.022;2022-09-12T06:24:49;0.10;;;0.10;;
16654;SDS011;8441;51.344;7.022;2022-09-12T06:27:17;0.10;;;0.10;;
16654;SDS011;8441;51.344;7.022;2022-09-12T06:29:44;0.10;;;0.10;;
16654;SDS011;8441;51.344;7.022;2022-09-12T06:32:12;0.10;;;0.10;;
16654;SDS011;8441;51.344;7.022;2022-09-12T06:34:39;0.10;;;0.10;;
16654;SDS011;8441;51.344;7.022;2022-09-12T06:37:05;0.10;;;0.10;;
16654;SDS011;8441;51.344;7.022;2022-09-12T06:39:32;0.10;;;0.10;;
16654;SDS011;8441;51.344;7.022;2022-09-12T06:42:00;0.08;;;0.08;;
16654;SDS011;8441;51.344;7.022;2022-09-12T06:44:29;0.10;;;0.10;;
16654;SDS011;8441;51.344;7.022;2022-09-12T06:46:56;0.10;;;0.10;;
16654;SDS011;8441;51.344;7.022;2022-09-12T06:49:23;0.10;;;0.10;;
16654;SDS011;8441;51.344;7.022;2022-09-12T06:51:50;0.10;;;0.10;;
16654;SDS011;8441;51.344;7.022;2022-09-12T06:54:17;0.10;;;0.10;;
16654;SDS011;8441;51.344;7.022;2022-09-12T06:56:45;0.00;;;0.00;;
16654;SDS011;8441;51.344;7.022;2022-09-12T06:59:12;0.10;;;0.10;;
16654;SDS011;8441;51.344;7.022;2022-09-12T07:01:40;0.10;;;0.10;;
16654;SDS011;8441;51.344;7.022;2022-09-12T07:04:07;0.10;;;0.10;;
16654;SDS011;8441;51.344;7.022;2022-09-12T07:06:36;0.10;;;0.10;;
16654;SDS011;8441;51.344;7.022;2022-09-12T07:09:05;0.10;;;0.10;;
16654;SDS011;8441;51.344;7.022;2022-09-12T07:11:35;0.10;;;0.10;;
16654;SDS011;8441;51.344;7.022;2022-09-12T07:14:04;0.03;;;0.03;;
16654;SDS011;8441;51.344;7.022;2022-09-12T07:16:33;0.10;;;0.10;;
16654;SDS011;8441;51.344;7.022;2022-09-12T07:19:02;0.10;;;0.10;;
16654;SDS011;8441;51.344;7.022;2022-09-12T07:21:30;0.10;;;0.10;;
16654;SDS011;8441;51.344;7.022;2022-09-12T07:24:00;0.10;;;0.10;;
16654;SDS011;8441;51.344;7.022;2022-09-12T07:26:28;0.10;;;0.10;;
16654;SDS011;8441;51.344;7.022;2022-09-12T07:28:57;0.00;;;0.00;;
16654;SDS011;8441;51.344;7.022;2022-09-12T07:31:25;0.10;;;0.10;;
16654;SDS011;8441;51.344;7.022;2022-09-12T07:33:53;0.10;;;0.10;;
16654;SDS011;8441;51.344;7.022;2022-09-12T07:36:22;0.10;;;0.10;;
16654;SDS011;8441;51.344;7.022;2022-09-12T07:38:52;0.00;;;0.00;;
16654;SDS011;8441;51.344;7.022;2022-09-12T07:41:20;0.00;;;0.00;;
16654;SDS011;8441;51.344;7.022;2022-09-12T07:43:50;0.10;;;0.10;;
16654;SDS011;8441;51.344;7.022;2022-09-12T07:46:18;0.05;;;0.05;;
16654;SDS011;8441;51.344;7.022;2022-09-12T07:48:48;0.00;;;0.00;;
16654;SDS011;8441;51.344;7.022;2022-09-12T07:51:16;0.00;;;0.00;;
16654;SDS011;8441;51.344;7.022;2022-09-12T07:53:45;0.10;;;0.10;;
16654;SDS011;8441;51.344;7.022;2022-09-12T07:56:13;0.00;;;0.00;;
16654;SDS011;8441;51.344;7.022;2022-09-12T07:58:41;0.10;;;0.10;;
16654;SDS011;8441;51.344;7.022;2022-09-12T08:01:09;0.10;;;0.10;;
16654;SDS011;8441;51.344;7.022;2022-09-12T08:03:38;0.08;;;0.08;;
16654;SDS011;8441;51.344;7.022;2022-09-12T08:06:07;0.10;;;0.10;;
16654;SDS011;8441;51.344;7.022;2022-09-12T08:08:35;0.00;;;0.00;;
16654;SDS011;8441;51.344;7.022;2022-09-12T08:11:05;0.00;;;0.00;;
16654;SDS011;8441;51.344;7.022;2022-09-12T08:13:33;0.00;;;0.00;;
16654;SDS011;8441;51.344;7.022;2022-09-12T08:16:02;0.00;;;0.00;;
16654;SDS011;8441;51.344;7.022;2022-09-12T08:18:31;0.00;;;0.00;;
16654;SDS011;8441;51.344;7.022;2022-09-12T08:21:00;0.00;;;0.00;;
16654;SDS011;8441;51.344;7.022;2022-09-12T08:23:29;0.00;;;0.00;;
16654;SDS011;8441;51.344;7.022;2022-09-12T08:25:57;0.00;;;0.00;;
16654;SDS011;8441;51.344;7.022;2022-09-12T08:28:26;0.00;;;0.00;;
16654;SDS011;8441;51.344;7.022;2022-09-12T08:30:58;0.00;;;0.00;;
16654;SDS011;8441;51.344;7.022;2022-09-12T08:33:26;0.10;;;0.10;;
16654;SDS011;8441;51.344;7.022;2022-09-12T08:36:01;0.05;;;0.05;;
16654;SDS011;8441;51.344;7.022;2022-09-12T08:38:32;0.00;;;0.00;;
16654;SDS011;8441;51.344;7.022;2022-09-12T08:41:02;0.00;;;0.00;;
16654;SDS011;8441;51.344;7.022;2022-09-12T08:43:41;0.00;;;0.00;;
16654;SDS011;8441;51.344;7.022;2022-09-12T08:46:22;0.00;;;0.00;;
16654;SDS011;8441;51.344;7.022;2022-09-12T08:48:52;0.08;;;0.08;;
16654;SDS011;8441;51.344;7.022;2022-09-12T08:51:22;0.10;;;0.10;;
16654;SDS011;8441;51.344;7.022;2022-09-12T08:53:51;0.00;;;0.00;;
16654;SDS011;8441;51.344;7.022;2022-09-12T08:56:20;0.00;;;0.00;;
16654;SDS011;8441;51.344;7.022;2022-09-12T08:58:49;0.00;;;0.00;;
16654;SDS011;8441;51.344;7.022;2022-09-12T09:01:19;0.05;;;0.05;;
16654;SDS011;8441;51.344;7.022;2022-09-12T09:04:02;0.10;;;0.10;;
16654;SDS011;8441;51.344;7.022;2022-09-12T09:06:51;0.00;;;0.00;;
16654;SDS011;8441;51.344;7.022;2022-09-12T09:09:43;0.05;;;0.05;;
16654;SDS011;8441;51.344;7.022;2022-09-12T09:12:39;0.10;;;0.10;;
16654;SDS011;8441;51.344;7.022;2022-09-12T09:15:19;0.00;;;0.00;;
16654;SDS011;8441;51.344;7.022;2022-09-12T09:17:57;0.10;;;0.10;;
16654;SDS011;8441;51.344;7.022;2022-09-12T09:20:31;0.00;;;0.00;;
16654;SDS011;8441;51.344;7.022;2022-09-12T09:23:05;0.08;;;0.08;;
16654;SDS011;8441;51.344;7.022;2022-09-12T09:25:41;0.00;;;0.00;;
16654;SDS011;8441;51.344;7.022;2022-09-12T09:28:18;0.00;;;0.00;;
16654;SDS011;8441;51.344;7.022;2022-09-12T09:30:50;0.08;;;0.08;;
16654;SDS011;8441;51.344;7.022;2022-09-12T09:33:22;0.00;;;0.00;;
16654;SDS011;8441;51.344;7.022;2022-09-12T09:35:54;0.00;;;0.00;;
16654;SDS011;8441;51.344;7.022;2022-09-12T09:38:26;0.00;;;0.00;;
16654;SDS011;8441;51.344;7.022;2022-09-12T09:41:13;0.00;;;0.00;;
16654;SDS011;8441;51.344;7.022;2022-09-12T09:43:50;0.00;;;0.00;;
16654;SDS011;8441;51.344;7.022;2022-09-12T09:46:19;0.00;;;0.00;;
16654;SDS011;8441;51.344;7.022;2022-09-12T09:48:46;0.00;;;0.00;;
16654;SDS011;8441;51.344;7.022;2022-09-12T09:51:15;0.00;;;0.00;;
16654;SDS011;8441;51.344;7.022;2022-09-12T09:53:46;0.00;;;0.00;;
16654;SDS011;8441;51.344;7.022;2022-09-12T09:56:19;0.00;;;0.00;;
16654;SDS011;8441;51.344;7.022;2022-09-12T09:58:53;0.00;;;0.00;;
16654;SDS011;8441;51.344;7.022;2022-09-12T10:01:21;0.00;;;0.00;;
16654;SDS011;8441;51.344;7.022;2022-09-12T10:03:57;0.00;;;0.00;;
16654;SDS011;8441;51.344;7.022;2022-09-12T10:06:25;0.00;;;0.00;;
16654;SDS011;8441;51.344;7.022;2022-09-12T10:11:44;0.00;;;0.00;;
16654;SDS011;8441;51.344;7.022;2022-09-12T10:14:25;0.00;;;0.00;;
16654;SDS011;8441;51.344;7.022;2022-09-12T10:17:00;0.00;;;0.00;;
16654;SDS011;8441;51.344;7.022;2022-09-12T10:19:35;0.00;;;0.00;;
16654;SDS011;8441;51.344;7.022;2022-09-12T10:22:04;0.00;;;0.00;;
16654;SDS011;8441;51.344;7.022;2022-09-12T10:24:33;0.00;;;0.00;;
16654;SDS011;8441;51.344;7.022;2022-09-12T10:27:06;0.00;;;0.00;;
16654;SDS011;8441;51.344;7.022;2022-09-12T10:29:39;0.00;;;0.00;;
16654;SDS011;8441;51.344;7.022;2022-09-12T10:32:17;0.00;;;0.00;;
16654;SDS011;8441;51.344;7.022;2022-09-12T10:34:50;0.00;;;0.00;;
16654;SDS011;8441;51.344;7.022;2022-09-12T10:37:22;0.00;;;0.00;;
16654;SDS011;8441;51.344;7.022;2022-09-12T10:39:52;0.00;;;0.00;;
16654;SDS011;8441;51.344;7.022;2022-09-12T10:42:44;0.00;;;0.00;;
16654;SDS011;8441;51.344;7.022;2022-09-12T10:45:23;0.00;;;0.00;;
16654;SDS011;8441;51.344;7.022;2022-09-12T10:47:54;0.00;;;0.00;;
16654;SDS011;8441;51.344;7.022;2022-09-12T10:50:25;0.00;;;0.00;;
16654;SDS011;8441;51.344;7.022;2022-09-12T10:52:54;0.10;;;0.10;;
16654;SDS011;8441;51.344;7.022;2022-09-12T10:55:40;0.00;;;0.00;;
16654;SDS011;8441;51.344;7.022;2022-09-12T10:58:23;0.00;;;0.00;;
16654;SDS011;8441;51.344;7.022;2022-09-12T11:01:03;0.00;;;0.00;;
16654;SDS011;8441;51.344;7.022;2022-09-12T11:03:47;0.00;;;0.00;;
16654;SDS011;8441;51.344;7.022;2022-09-12T11:06:32;0.00;;;0.00;;
16654;SDS011;8441;51.344;7.022;2022-09-12T11:09:12;0.10;;;0.10;;
16654;SDS011;8441;51.344;7.022;2022-09-12T11:11:49;0.00;;;0.00;;
16654;SDS011;8441;51.344;7.022;2022-09-12T11:14:27;0.00;;;0.00;;
16654;SDS011;8441;51.344;7.022;2022-09-12T11:17:08;0.00;;;0.00;;
16654;SDS011;8441;51.344;7.022;2022-09-12T11:20:02;0.00;;;0.00;;
16654;SDS011;8441;51.344;7.022;2022-09-12T11:22:46;0.00;;;0.00;;
16654;SDS011;8441;51.344;7.022;2022-09-12T11:25:43;0.00;;;0.00;;
16654;SDS011;8441;51.344;7.022;2022-09-12T11:28:20;0.00;;;0.00;;
16654;SDS011;8441;51.344;7.022;2022-09-12T11:30:57;0.00;;;0.00;;
16654;SDS011;8441;51.344;7.022;2022-09-12T11:33:45;0.00;;;0.00;;
16654;SDS011;8441;51.344;7.022;2022-09-12T11:36:22;0.00;;;0.00;;
16654;SDS011;8441;51.344;7.022;2022-09-12T11:39:00;0.00;;;0.00;;
16654;SDS011;8441;51.344;7.022;2022-09-12T11:41:29;0.00;;;0.00;;
16654;SDS011;8441;51.344;7.022;2022-09-12T11:44:01;0.05;;;0.05;;
16654;SDS011;8441;51.344;7.022;2022-09-12T11:46:36;0.00;;;0.00;;
16654;SDS011;8441;51.344;7.022;2022-09-12T11:49:05;0.00;;;0.00;;
16654;SDS011;8441;51.344;7.022;2022-09-12T11:51:44;0.00;;;0.00;;
16654;SDS011;8441;51.344;7.022;2022-09-12T11:54:19;0.00;;;0.00;;
16654;SDS011;8441;51.344;7.022;2022-09-12T11:56:49;0.00;;;0.00;;
16654;SDS011;8441;51.344;7.022;2022-09-12T11:59:29;0.00;;;0.00;;
16654;SDS011;8441;51.344;7.022;2022-09-12T12:02:00;0.00;;;0.00;;
16654;SDS011;8441;51.344;7.022;2022-09-12T12:04:31;0.00;;;0.00;;
16654;SDS011;8441;51.344;7.022;2022-09-12T12:07:05;0.00;;;0.00;;
16654;SDS011;8441;51.344;7.022;2022-09-12T12:09:34;0.00;;;0.00;;
16654;SDS011;8441;51.344;7.022;2022-09-12T12:12:03;0.00;;;0.00;;
16654;SDS011;8441;51.344;7.022;2022-09-12T12:14:35;0.03;;;0.03;;
16654;SDS011;8441;51.344;7.022;2022-09-12T12:17:12;0.00;;;0.00;;
16654;SDS011;8441;51.344;7.022;2022-09-12T12:19:40;0.00;;;0.00;;
16654;SDS011;8441;51.344;7.022;2022-09-12T12:22:16;0.00;;;0.00;;
16654;SDS011;8441;51.344;7.022;2022-09-12T12:24:57;0.00;;;0.00;;
16654;SDS011;8441;51.344;7.022;2022-09-12T12:27:50;0.00;;;0.00;;
16654;SDS011;8441;51.344;7.022;2022-09-12T12:45:46;0.00;;;0.00;;
16654;SDS011;8441;51.344;7.022;2022-09-12T12:48:43;0.00;;;0.00;;
16654;SDS011;8441;51.344;7.022;2022-09-12T12:51:25;0.00;;;0.00;;
16654;SDS011;8441;51.344;7.022;2022-09-12T12:57:25;0.00;;;0.00;;
16654;SDS011;8441;51.344;7.022;2022-09-12T12:59:57;0.00;;;0.00;;
16654;SDS011;8441;51.344;7.022;2022-09-12T13:02:28;0.00;;;0.00;;
16654;SDS011;8441;51.344;7.022;2022-09-12T13:04:58;0.00;;;0.00;;
16654;SDS011;8441;51.344;7.022;2022-09-12T13:07:30;0.00;;;0.00;;
16654;SDS011;8441;51.344;7.022;2022-09-12T13:10:01;0.00;;;0.00;;
16654;SDS011;8441;51.344;7.022;2022-09-12T13:12:30;0.00;;;0.00;;
16654;SDS011;8441;51.344;7.022;2022-09-12T13:15:03;0.00;;;0.00;;
16654;SDS011;8441;51.344;7.022;2022-09-12T13:17:56;0.00;;;0.00;;
16654;SDS011;8441;51.344;7.022;2022-09-12T13:20:27;0.00;;;0.00;;
16654;SDS011;8441;51.344;7.022;2022-09-12T13:22:58;0.00;;;0.00;;
16654;SDS011;8441;51.344;7.022;2022-09-12T13:25:27;0.00;;;0.00;;
16654;SDS011;8441;51.344;7.022;2022-09-12T13:27:56;0.00;;;0.00;;
16654;SDS011;8441;51.344;7.022;2022-09-12T13:30:30;0.00;;;0.00;;
16654;SDS011;8441;51.344;7.022;2022-09-12T13:33:02;0.00;;;0.00;;
16654;SDS011;8441;51.344;7.022;2022-09-12T13:35:39;0.00;;;0.00;;
16654;SDS011;8441;51.344;7.022;2022-09-12T13:38:15;0.00;;;0.00;;
16654;SDS011;8441;51.344;7.022;2022-09-12T13:40:56;0.00;;;0.00;;
16654;SDS011;8441;51.344;7.022;2022-09-12T13:43:38;0.00;;;0.00;;
16654;SDS011;8441;51.344;7.022;2022-09-12T13:46:11;0.00;;;0.00;;
16654;SDS011;8441;51.344;7.022;2022-09-12T13:48:41;0.00;;;0.00;;
16654;SDS011;8441;51.344;7.022;2022-09-12T13:51:14;0.00;;;0.00;;
16654;SDS011;8441;51.344;7.022;2022-09-12T13:53:48;0.00;;;0.00;;
16654;SDS011;8441;51.344;7.022;2022-09-12T13:56:16;0.00;;;0.00;;
16654;SDS011;8441;51.344;7.022;2022-09-12T13:58:51;0.00;;;0.00;;
16654;SDS011;8441;51.344;7.022;2022-09-12T14:01:22;0.00;;;0.00;;
16654;SDS011;8441;51.344;7.022;2022-09-12T14:03:51;0.00;;;0.00;;
16654;SDS011;8441;51.344;7.022;2022-09-12T14:06:44;0.00;;;0.00;;
16654;SDS011;8441;51.344;7.022;2022-09-12T14:09:15;0.00;;;0.00;;
16654;SDS011;8441;51.344;7.022;2022-09-12T14:11:47;0.00;;;0.00;;
16654;SDS011;8441;51.344;7.022;2022-09-12T14:14:17;0.00;;;0.00;;
16654;SDS011;8441;51.344;7.022;2022-09-12T14:16:48;0.00;;;0.00;;
16654;SDS011;8441;51.344;7.022;2022-09-12T14:19:18;0.00;;;0.00;;
16654;SDS011;8441;51.344;7.022;2022-09-12T14:21:50;0.00;;;0.00;;
16654;SDS011;8441;51.344;7.022;2022-09-12T14:24:18;0.00;;;0.00;;
16654;SDS011;8441;51.344;7.022;2022-09-12T14:26:48;0.00;;;0.00;;
16654;SDS011;8441;51.344;7.022;2022-09-12T14:29:18;0.00;;;0.00;;
16654;SDS011;8441;51.344;7.022;2022-09-12T14:31:46;0.00;;;0.00;;
16654;SDS011;8441;51.344;7.022;2022-09-12T14:34:27;0.00;;;0.00;;
16654;SDS011;8441;51.344;7.022;2022-09-12T14:36:55;0.00;;;0.00;;
16654;SDS011;8441;51.344;7.022;2022-09-12T14:39:24;0.00;;;0.00;;
16654;SDS011;8441;51.344;7.022;2022-09-12T14:42:02;0.00;;;0.00;;
16654;SDS011;8441;51.344;7.022;2022-09-12T14:44:32;0.00;;;0.00;;
16654;SDS011;8441;51.344;7.022;2022-09-12T14:47:12;0.00;;;0.00;;
16654;SDS011;8441;51.344;7.022;2022-09-12T14:49:43;0.00;;;0.00;;
16654;SDS011;8441;51.344;7.022;2022-09-12T14:52:20;0.00;;;0.00;;
16654;SDS011;8441;51.344;7.022;2022-09-12T14:54:54;0.00;;;0.00;;
16654;SDS011;8441;51.344;7.022;2022-09-12T15:00:15;0.00;;;0.00;;
16654;SDS011;8441;51.344;7.022;2022-09-12T15:05:53;0.00;;;0.00;;
16654;SDS011;8441;51.344;7.022;2022-09-12T15:08:20;0.00;;;0.00;;
16654;SDS011;8441;51.344;7.022;2022-09-12T15:10:47;0.00;;;0.00;;
16654;SDS011;8441;51.344;7.022;2022-09-12T15:13:17;0.00;;;0.00;;
16654;SDS011;8441;51.344;7.022;2022-09-12T15:15:46;0.00;;;0.00;;
16654;SDS011;8441;51.344;7.022;2022-09-12T15:18:15;0.00;;;0.00;;
16654;SDS011;8441;51.344;7.022;2022-09-12T15:20:43;0.00;;;0.00;;
16654;SDS011;8441;51.344;7.022;2022-09-12T15:26:04;0.00;;;0.00;;
16654;SDS011;8441;51.344;7.022;2022-09-12T15:28:32;0.00;;;0.00;;
16654;SDS011;8441;51.344;7.022;2022-09-12T15:31:02;0.00;;;0.00;;
16654;SDS011;8441;51.344;7.022;2022-09-12T15:33:32;0.00;;;0.00;;
16654;SDS011;8441;51.344;7.022;2022-09-12T15:35:59;0.00;;;0.00;;
16654;SDS011;8441;51.344;7.022;2022-09-12T15:38:26;0.00;;;0.00;;
16654;SDS011;8441;51.344;7.022;2022-09-12T15:40:54;0.00;;;0.00;;
16654;SDS011;8441;51.344;7.022;2022-09-12T15:43:22;0.00;;;0.00;;
16654;SDS011;8441;51.344;7.022;2022-09-12T15:45:50;0.00;;;0.00;;
16654;SDS011;8441;51.344;7.022;2022-09-12T15:48:17;0.00;;;0.00;;
16654;SDS011;8441;51.344;7.022;2022-09-12T15:50:45;0.00;;;0.00;;
16654;SDS011;8441;51.344;7.022;2022-09-12T15:53:13;0.00;;;0.00;;
16654;SDS011;8441;51.344;7.022;2022-09-12T15:55:41;0.00;;;0.00;;
16654;SDS011;8441;51.344;7.022;2022-09-12T15:58:09;0.00;;;0.00;;